Star Helena — V7KJ9 — position and weather

sailwx.info

Track history (hours):
 
Tides and Currents Weather Stations Pressure Air Temp Water Temp Dewpoint Dewpoint Depression Visibility Wind Speed Wind Dir Waves Ship Positions

Star Helena

Last reported at 2015-Jun-25 04:29 UTC. Time now 2015-Jul-04 22:29 UTC.
Position S 34°56' E 018°58'.
Warning: this ship's position is 9 days out of date.

Length 229 m; draft 6.3 m.

Type: Cargo ship. MMSI: 538002630.

Date/timePositionNaut miles runAvg speedWind from/ knotsBaromVisibWave heightAir tempDewpointWater temp
2015-Jun-25 04:29S 34°56' E 018°58'8 7.8
2015-Jun-25 03:24S 34°57' E 019°09'  
2015-Jun-22 19:26S 32°30' E 030°34'1112.6
2015-Jun-22 18:34S 32°25' E 030°46'1312.9
2015-Jun-22 17:33S 32°20' E 031°01'3411.5
2015-Jun-22 14:34S 32°07' E 031°38'1410.4
2015-Jun-22 13:15S 32°01' E 031°53'810.7
2015-Jun-22 12:33S 31°58' E 032°01'3410.2
2015-Jun-22 09:10S 31°45' E 032°38'  
Track history (hours):
 
Tides and Currents Weather Stations Pressure Air Temp Water Temp Dewpoint Dewpoint Depression Visibility Wind Speed Wind Dir Waves Ship Positions

Star Helena

Last reported at 2015-Jun-25 04:29 UTC. Time now 2015-Jul-04 22:29 UTC.
Position S 34°56' E 018°58'.
Warning: this ship's position is 9 days out of date.

Length 229 m; draft 6.3 m.

Type: Cargo ship. MMSI: 538002630.

Date/timePositionNaut miles runAvg speedWind from/ knotsBaromVisibWave heightAir tempDewpointWater temp
2015-Jun-25 04:29S 34°56' E 018°58'8 7.8
2015-Jun-25 03:24S 34°57' E 019°09'  
2015-Jun-22 19:26S 32°30' E 030°34'1112.6
2015-Jun-22 18:34S 32°25' E 030°46'1312.9
2015-Jun-22 17:33S 32°20' E 031°01'3411.5
2015-Jun-22 14:34S 32°07' E 031°38'1410.4
2015-Jun-22 13:15S 32°01' E 031°53'810.7
2015-Jun-22 12:33S 31°58' E 032°01'3410.2
2015-Jun-22 09:10S 31°45' E 032°38'  

Dump ship's entire track history